Time;durP1;ratioP1;P1;durP2;ratioP2;P2;SDS_P1;SDS_P2;PMS_P1;PMS_P2;Temp;Humidity;BMP_temperature;BMP_pressure;BME280_temperature;BME280_humidity;BME280_pressure;Samples;Min_cycle;Max_cycle;Signal;HPM_P1;HPM_P2
2023/01/05 00:01:53;;;;;;;0.60;0.60;;;11.50;99.90;;;11.61;100.00;100950.25;5015032;28;20661;-65
2023/01/05 00:04:21;;;;;;;0.50;0.50;;;11.50;99.90;;;11.62;100.00;100948.50;5023485;28;21083;-65
2023/01/05 00:06:48;;;;;;;0.50;0.50;;;11.50;99.90;;;11.63;100.00;100951.00;5000564;28;20748;-64
2023/01/05 00:09:17;;;;;;;0.43;0.40;;;11.50;99.90;;;11.67;100.00;100954.25;5016381;28;20653;-63
2023/01/05 00:23:03;;;;;;;0.40;0.40;;;11.60;99.90;;;11.73;100.00;100911.16;5026878;28;20636;-65
2023/01/05 00:25:35;;;;;;;0.50;0.50;;;11.60;99.90;;;11.72;100.00;100915.53;5033359;28;20656;-65
2023/01/05 00:28:03;;;;;;;0.30;0.30;;;11.60;99.90;;;11.69;100.00;100915.78;5019000;28;20653;-65
2023/01/05 00:30:43;;;;;;;0.40;0.40;;;11.60;99.90;;;11.69;100.00;100916.59;5014297;28;20601;-64
2023/01/05 00:33:14;;;;;;;0.43;0.43;;;11.60;99.90;;;11.76;100.00;100917.00;5021740;28;21204;-65
2023/01/05 00:35:41;;;;;;;0.40;0.40;;;11.60;99.90;;;11.76;100.00;100911.75;5023777;28;20724;-65
2023/01/05 00:38:09;;;;;;;1.07;0.60;;;11.70;99.90;;;11.78;100.00;100914.25;5012782;28;21251;-65
2023/01/05 00:40:36;;;;;;;0.50;0.50;;;11.70;99.90;;;11.76;100.00;100917.00;5028500;28;20691;-65
2023/01/05 00:43:03;;;;;;;0.47;0.47;;;11.70;99.90;;;11.77;100.00;100913.44;5021740;28;21215;-64
2023/01/05 00:45:30;;;;;;;0.50;0.50;;;11.70;99.90;;;11.77;100.00;100912.59;5014141;28;20665;-65
2023/01/05 00:47:57;;;;;;;0.60;0.50;;;11.70;99.90;;;11.79;100.00;100921.16;5040196;28;20655;-65
2023/01/05 00:50:24;;;;;;;0.50;0.50;;;11.70;99.90;;;11.83;100.00;100914.78;5029872;28;21040;-64
2023/01/05 00:52:51;;;;;;;0.40;0.40;;;11.70;99.90;;;11.84;100.00;100913.84;5029764;28;20628;-65
2023/01/05 00:55:18;;;;;;;0.50;0.50;;;11.70;99.90;;;11.86;100.00;100923.22;5031734;28;20616;-64
2023/01/05 00:57:45;;;;;;;0.50;0.50;;;11.80;99.90;;;11.89;100.00;100911.72;5032292;28;20648;-65
2023/01/05 01:00:16;;;;;;;0.50;0.50;;;11.80;99.90;;;11.95;100.00;100921.72;5032698;28;20624;-64
2023/01/05 01:02:43;;;;;;;1.30;0.30;;;11.80;99.90;;;11.95;100.00;100906.88;5030723;28;20628;-65
2023/01/05 01:05:11;;;;;;;0.40;0.40;;;11.80;99.90;;;12.01;100.00;100916.88;5031276;28;20624;-65
2023/01/05 01:07:38;;;;;;;0.50;0.50;;;11.90;99.90;;;12.07;100.00;100903.38;5001619;28;20655;-64
2023/01/05 01:10:07;;;;;;;0.40;0.40;;;12.00;99.90;;;12.09;100.00;100904.09;5012325;28;20637;-66
2023/01/05 01:12:34;;;;;;;0.30;0.30;;;12.00;99.90;;;12.11;100.00;100911.81;5023259;28;21024;-65
2023/01/05 01:15:01;;;;;;;0.50;0.50;;;12.00;99.90;;;12.13;100.00;100889.84;5017467;28;20652;-64
2023/01/05 01:17:31;;;;;;;0.50;0.50;;;12.00;99.90;;;12.15;100.00;100898.41;5016580;28;20652;-65
2023/01/05 01:19:58;;;;;;;0.40;0.40;;;12.10;99.90;;;12.18;100.00;100915.66;5025305;28;20632;-65
2023/01/05 01:22:25;;;;;;;0.40;0.40;;;12.10;99.90;;;12.18;100.00;100913.84;5022522;28;20621;-65
2023/01/05 01:24:52;;;;;;;0.50;0.40;;;12.10;99.90;;;12.19;100.00;100894.59;5012306;28;21064;-63
2023/01/05 01:27:19;;;;;;;0.40;0.40;;;12.10;99.90;;;12.23;100.00;100892.59;5021639;28;21229;-64
2023/01/05 01:29:46;;;;;;;0.40;0.40;;;12.10;99.90;;;12.23;100.00;100885.56;5025520;28;20620;-65
2023/01/05 01:32:13;;;;;;;0.60;0.50;;;12.10;99.90;;;12.26;100.00;100898.44;5015243;28;20632;-65
2023/01/05 01:34:40;;;;;;;0.50;0.50;;;12.10;99.90;;;12.29;100.00;100906.03;5031950;28;20710;-65
2023/01/05 01:37:06;;;;;;;0.40;0.40;;;12.20;99.90;;;12.32;100.00;100900.59;5027754;28;20644;-65
2023/01/05 01:39:34;;;;;;;0.70;0.40;;;12.20;99.90;;;12.33;100.00;100901.41;4994350;28;20617;-66
2023/01/05 01:42:00;;;;;;;0.40;0.40;;;12.20;99.90;;;12.35;100.00;100904.78;5021950;28;20629;-64
2023/01/05 01:44:46;;;;;;;0.50;0.50;;;12.30;99.90;;;12.35;100.00;100908.19;5027987;28;20617;-65
2023/01/05 01:47:53;;;;;;;0.40;0.40;;;12.30;99.90;;;12.33;100.00;100917.94;5021224;28;20672;-64
2023/01/05 01:50:45;;;;;;;0.40;0.40;;;12.20;99.90;;;12.34;100.00;100903.94;4987262;28;21017;-65
2023/01/05 01:53:47;;;;;;;0.40;0.40;;;12.30;99.90;;;12.32;100.00;100915.44;5024085;28;20650;-65
2023/01/05 01:56:17;;;;;;;0.40;0.40;;;12.20;99.90;;;12.29;100.00;100920.91;5028938;28;21214;-65
2023/01/05 01:58:44;;;;;;;0.50;0.50;;;12.20;99.90;;;12.29;100.00;100919.13;4996289;28;20687;-65
2023/01/05 02:01:11;;;;;;;0.40;0.40;;;12.20;99.90;;;12.31;100.00;100917.22;5029147;28;20628;-65
2023/01/05 02:03:39;;;;;;;0.60;0.60;;;12.20;99.90;;;12.31;100.00;100912.00;5016251;28;20699;-65
2023/01/05 02:06:07;;;;;;;0.27;0.27;;;12.20;99.90;;;12.34;100.00;100908.31;5012765;28;20672;-66
2023/01/05 02:08:34;;;;;;;0.50;0.50;;;12.20;99.90;;;12.35;100.00;100910.00;5012695;28;21060;-64
2023/01/05 02:11:15;;;;;;;0.40;0.40;;;12.30;99.90;;;12.38;100.00;100907.13;5021452;28;20624;-65
2023/01/05 02:13:57;;;;;;;0.40;0.40;;;12.30;99.90;;;12.38;99.81;100905.38;5026152;28;20639;-65
2023/01/05 02:16:42;;;;;;;0.40;0.40;;;12.30;99.90;;;12.39;100.00;100898.34;5011663;28;20727;-66
2023/01/05 02:20:21;;;;;;;0.47;0.47;;;12.30;99.90;;;12.46;99.22;100891.69;5019599;28;20660;-64
2023/01/05 02:23:35;;;;;;;0.40;0.40;;;12.40;99.90;;;12.45;99.64;100883.03;5016778;28;20719;-65
2023/01/05 02:26:29;;;;;;;0.53;0.53;;;12.40;99.90;;;12.43;100.00;100887.53;5005498;28;21449;-65
2023/01/05 02:29:33;;;;;;;0.40;0.40;;;12.30;99.90;;;12.40;100.00;100886.91;5024586;28;20756;-64
2023/01/05 02:32:15;;;;;;;0.40;0.40;;;12.30;99.90;;;12.37;100.00;100881.94;5024087;28;20746;-65
2023/01/05 02:35:01;;;;;;;0.37;0.37;;;12.30;99.90;;;12.38;100.00;100886.19;5023037;28;20620;-65
2023/01/05 02:40:09;;;;;;;0.40;0.40;;;12.30;99.90;;;12.32;100.00;100877.03;5009847;28;20664;-68
2023/01/05 02:42:38;;;;;;;0.40;0.40;;;12.30;99.90;;;12.22;100.00;100883.09;4993318;28;20632;-67
2023/01/05 02:45:07;;;;;;;0.50;0.50;;;12.20;99.90;;;12.21;100.00;100874.41;4975213;28;20621;-67
2023/01/05 02:47:43;;;;;;;0.50;0.50;;;12.10;99.90;;;12.20;100.00;100888.41;4992701;28;20688;-68
2023/01/05 02:50:19;;;;;;;0.40;0.40;;;12.10;99.90;;;12.19;100.00;100894.59;4985163;28;20643;-67
2023/01/05 02:53:07;;;;;;;0.30;0.30;;;12.10;99.90;;;12.22;100.00;100877.84;5006841;28;20683;-68
2023/01/05 02:55:41;;;;;;;0.60;0.60;;;12.10;99.90;;;12.25;100.00;100882.84;4991553;28;21037;-68
2023/01/05 02:58:23;;;;;;;0.40;0.40;;;12.20;99.90;;;12.25;100.00;100882.84;4987815;28;20672;-68
2023/01/05 03:00:57;;;;;;;0.40;0.40;;;12.10;99.90;;;12.22;100.00;100896.16;4982575;28;20632;-67
2023/01/05 03:03:40;;;;;;;0.40;0.40;;;12.10;99.90;;;12.21;100.00;100903.16;4985717;28;20633;-68
2023/01/05 03:06:16;;;;;;;0.40;0.40;;;12.10;99.90;;;12.24;100.00;100897.72;4978316;28;20665;-68
2023/01/05 03:08:51;;;;;;;0.40;0.40;;;12.10;99.90;;;12.28;100.00;100919.25;4960509;28;21250;-68
2023/01/05 03:14:23;;;;;;;0.40;0.40;;;12.20;99.90;;;12.37;100.00;100923.81;5010765;28;20996;-68
2023/01/05 03:16:52;;;;;;;0.40;0.40;;;12.20;99.90;;;12.40;100.00;100920.94;4991352;28;20641;-68
2023/01/05 03:19:35;;;;;;;0.33;0.33;;;12.30;99.90;;;12.41;100.00;100933.91;4983802;28;20657;-66
2023/01/05 03:36:56;;;;;;;0.40;0.40;;;12.50;99.90;;;12.56;100.00;100955.50;4990895;28;20614;-68
2023/01/05 03:39:26;;;;;;;0.83;0.40;;;12.40;99.90;;;12.54;100.00;100977.50;4976320;28;20710;-66
2023/01/05 03:41:53;;;;;;;0.30;0.30;;;12.40;99.90;;;12.57;100.00;100977.25;4966058;28;20718;-68
2023/01/05 03:44:21;;;;;;;0.30;0.30;;;12.50;99.90;;;12.56;99.32;100986.06;4973471;28;20709;-68
2023/01/05 03:46:48;;;;;;;0.40;0.40;;;12.50;99.90;;;12.56;99.14;100989.53;5001316;28;20669;-69
2023/01/05 03:49:16;;;;;;;3.93;0.40;;;12.50;99.90;;;12.52;99.42;100989.88;5001220;28;20653;-68
2023/01/05 03:51:43;;;;;;;0.40;0.40;;;12.40;99.90;;;12.51;98.76;100993.41;4988989;28;20725;-68
2023/01/05 03:54:10;;;;;;;0.40;0.40;;;12.40;99.90;;;12.53;98.55;100991.53;4993267;28;20691;-68
2023/01/05 03:56:37;;;;;;;0.57;0.57;;;12.40;99.90;;;12.54;96.15;100990.59;5001434;28;20732;-68
2023/01/05 03:59:04;;;;;;;2.00;0.50;;;12.50;99.90;;;12.57;94.36;101008.66;5009522;28;20664;-68
2023/01/05 04:01:31;;;;;;;1.97;0.80;;;12.50;99.90;;;12.62;90.60;100998.69;5010313;28;20729;-68
2023/01/05 04:03:58;;;;;;;1.00;0.83;;;12.60;99.90;;;12.64;89.09;101002.88;4994115;28;20633;-68
2023/01/05 04:06:25;;;;;;;1.33;0.73;;;12.60;99.90;;;12.65;88.79;101006.34;4996462;28;20672;-68
2023/01/05 04:08:52;;;;;;;1.23;0.70;;;12.60;99.90;;;12.63;87.95;101008.22;5012278;28;21247;-67
2023/01/05 04:11:22;;;;;;;4.37;0.60;;;12.50;99.90;;;12.61;87.44;101015.34;5004406;28;20618;-68
2023/01/05 04:13:50;;;;;;;2.43;0.73;;;12.50;99.90;;;12.57;87.28;101021.75;4996469;28;20679;-68
2023/01/05 04:16:17;;;;;;;1.00;0.90;;;12.50;99.90;;;12.56;85.78;101018.31;5013357;28;21223;-69
2023/01/05 04:18:44;;;;;;;3.07;1.20;;;12.50;99.90;;;12.55;85.38;101021.03;5012320;28;20692;-68
2023/01/05 04:21:11;;;;;;;0.60;0.60;;;12.50;99.90;;;12.53;85.05;101028.16;4996425;28;20666;-68
2023/01/05 04:23:38;;;;;;;2.00;0.77;;;12.40;99.90;;;12.53;83.46;101023.78;5009106;28;20637;-67
2023/01/05 04:26:05;;;;;;;1.00;0.50;;;12.50;99.90;;;12.54;82.92;101024.63;5014401;28;20632;-67
2023/01/05 04:28:32;;;;;;;1.10;0.80;;;12.50;99.90;;;12.54;81.93;101022.00;4988229;28;20688;-67
2023/01/05 04:30:59;;;;;;;1.80;0.67;;;12.50;99.90;;;12.48;83.03;101030.31;4965682;28;20630;-68
2023/01/05 04:33:26;;;;;;;0.87;0.37;;;12.40;99.90;;;12.45;82.05;101036.59;5011952;28;21196;-68
2023/01/05 04:35:53;;;;;;;2.93;0.90;;;12.40;99.90;;;12.35;82.11;101036.41;4996146;28;20609;-69
2023/01/05 04:38:20;;;;;;;2.23;0.60;;;12.30;99.90;;;12.27;82.70;101044.00;5010292;28;20657;-66
2023/01/05 04:40:52;;;;;;;1.23;0.80;;;12.20;99.90;;;12.26;82.15;101039.72;5012632;28;20621;-68
2023/01/05 04:43:19;;;;;;;0.50;0.50;;;12.20;99.90;;;12.29;81.91;101042.09;5011730;28;21201;-67
2023/01/05 04:45:47;;;;;;;3.10;0.83;;;12.20;99.90;;;12.33;81.59;101038.31;4992676;28;20602;-67
2023/01/05 04:48:15;;;;;;;0.60;0.60;;;12.20;99.90;;;12.33;81.88;101047.94;4983940;28;20670;-67
2023/01/05 04:50:42;;;;;;;3.47;0.60;;;12.20;99.90;;;12.34;80.83;101049.63;4988221;28;20655;-68
2023/01/05 04:53:09;;;;;;;1.23;0.70;;;12.20;99.90;;;12.36;80.14;101045.94;4994282;28;20639;-68
2023/01/05 04:55:36;;;;;;;3.17;0.80;;;12.30;99.90;;;12.38;79.54;101048.44;4995973;28;20983;-68
2023/01/05 04:58:03;;;;;;;2.10;0.60;;;12.30;99.90;;;12.38;80.16;101046.66;5012344;28;20661;-67
2023/01/05 05:00:37;;;;;;;1.50;0.90;;;12.30;99.90;;;12.39;79.87;101050.13;4996779;28;20636;-68
2023/01/05 05:03:04;;;;;;;2.87;0.80;;;12.30;99.90;;;12.36;79.29;101048.56;4995474;28;20731;-67
2023/01/05 05:05:31;;;;;;;3.37;1.37;;;12.30;99.90;;;12.34;79.28;101055.69;5011732;28;21034;-67
2023/01/05 05:07:58;;;;;;;3.30;1.40;;;12.30;99.90;;;12.29;78.89;101047.34;4994817;28;20673;-66
2023/01/05 05:10:25;;;;;;;2.00;0.80;;;12.20;99.90;;;12.26;79.85;101058.03;4999257;28;21238;-67
2023/01/05 05:12:52;;;;;;;1.60;0.80;;;12.20;99.90;;;12.28;79.10;101056.16;5011134;28;21206;-67
2023/01/05 05:15:19;;;;;;;5.90;1.40;;;12.20;99.90;;;12.27;79.00;101066.69;5003671;28;20645;-67
2023/01/05 05:17:47;;;;;;;1.80;1.07;;;12.20;99.90;;;12.24;79.05;101073.00;4986804;28;20729;-67
2023/01/05 05:20:14;;;;;;;1.17;0.63;;;12.20;99.90;;;12.24;78.83;101075.63;5012463;28;21220;-67
2023/01/05 05:22:41;;;;;;;4.70;0.77;;;12.10;99.90;;;12.27;79.36;101079.78;5010383;28;20648;-66
2023/01/05 05:25:08;;;;;;;4.13;0.90;;;12.20;99.90;;;12.26;78.95;101094.66;4995865;28;20625;-67
2023/01/05 05:27:35;;;;;;;1.30;0.60;;;12.20;99.90;;;12.30;79.44;101097.88;5011268;28;20665;-68
2023/01/05 05:30:03;;;;;;;1.27;0.63;;;12.20;99.90;;;12.28;79.77;101102.41;5013264;28;20672;-68
2023/01/05 05:32:30;;;;;;;1.00;0.90;;;12.20;99.90;;;12.29;79.23;101102.28;5010947;28;21252;-68
2023/01/05 05:34:57;;;;;;;2.80;1.17;;;12.20;99.90;;;12.29;79.21;101104.06;5012579;28;20623;-68
2023/01/05 05:37:24;;;;;;;1.73;0.83;;;12.30;99.90;;;12.28;80.10;101103.25;5011956;28;20637;-68
2023/01/05 05:39:51;;;;;;;0.50;0.50;;;12.20;99.90;;;12.25;79.64;101100.81;4994699;28;20653;-68
2023/01/05 05:42:18;;;;;;;3.30;0.80;;;12.20;99.90;;;12.24;80.41;101101.78;4992621;28;21193;-68
2023/01/05 05:44:45;;;;;;;4.43;0.90;;;12.20;99.90;;;12.20;80.10;101102.94;4996486;28;20713;-68
2023/01/05 05:47:12;;;;;;;1.60;0.97;;;12.10;99.90;;;12.16;80.28;101101.47;4999551;28;20732;-68
2023/01/05 05:49:38;;;;;;;0.70;0.70;;;12.10;99.90;;;12.16;80.56;101114.56;4986202;28;20642;-68
2023/01/05 05:52:06;;;;;;;0.80;0.50;;;12.10;99.90;;;12.14;79.74;101113.81;4999636;28;20632;-67
2023/01/05 05:54:33;;;;;;;4.80;1.00;;;12.10;99.90;;;12.13;79.78;101125.25;4983454;28;20660;-68
2023/01/05 05:57:00;;;;;;;3.23;0.90;;;12.10;99.90;;;12.13;79.30;101124.41;4996827;28;20648;-67
2023/01/05 05:59:27;;;;;;;2.30;0.60;;;12.10;99.90;;;12.16;79.68;101135.47;5012198;28;21212;-68
2023/01/05 06:01:54;;;;;;;2.17;0.70;;;12.10;99.90;;;12.17;79.04;101137.16;4995896;28;20630;-68
2023/01/05 06:04:21;;;;;;;3.80;1.00;;;12.10;99.90;;;12.17;80.09;101146.78;4974370;28;20630;-68
2023/01/05 06:06:48;;;;;;;2.73;1.00;;;12.10;99.90;;;12.16;79.30;101143.34;5003069;28;20649;-68
2023/01/05 06:09:15;;;;;;;1.70;0.80;;;12.10;99.90;;;12.13;79.48;101154.03;5011730;28;20649;-67
2023/01/05 06:11:42;;;;;;;2.10;1.03;;;12.10;99.90;;;12.10;79.93;101149.00;4993265;28;20630;-68
2023/01/05 06:14:09;;;;;;;1.07;0.50;;;12.00;99.90;;;12.07;80.38;101141.38;5010863;28;20645;-68
2023/01/05 06:16:36;;;;;;;0.80;0.80;;;12.00;99.90;;;12.03;79.97;101152.16;4994336;28;20724;-67
2023/01/05 06:19:03;;;;;;;1.10;1.00;;;11.90;99.90;;;12.03;80.09;101155.59;5011292;28;20653;-68
2023/01/05 06:21:30;;;;;;;1.93;0.70;;;11.90;99.90;;;12.02;80.74;101151.31;4994634;28;21066;-67
2023/01/05 06:23:57;;;;;;;2.30;0.80;;;12.00;99.90;;;12.01;80.33;101149.63;4993378;28;21134;-68
2023/01/05 06:26:23;;;;;;;1.80;0.90;;;11.90;99.90;;;12.02;80.60;101140.84;5010937;28;20609;-68
2023/01/05 06:28:50;;;;;;;1.43;1.00;;;11.90;99.90;;;12.01;79.70;101140.97;5008203;28;20658;-67
2023/01/05 06:31:17;;;;;;;5.10;0.70;;;11.90;99.90;;;12.07;79.91;101154.47;5011869;28;20625;-67
2023/01/05 06:33:44;;;;;;;3.53;0.90;;;12.00;99.90;;;12.07;80.19;101149.22;5009912;28;20633;-68
2023/01/05 06:36:11;;;;;;;1.60;1.00;;;12.00;99.90;;;12.06;79.37;101158.00;5009594;28;20620;-68
2023/01/05 06:38:38;;;;;;;3.10;0.90;;;12.00;99.90;;;12.06;80.32;101144.94;5009982;28;20676;-68
2023/01/05 06:41:05;;;;;;;3.30;0.60;;;12.00;99.90;;;12.06;80.14;101154.53;4992260;28;20637;-67
2023/01/05 06:43:32;;;;;;;3.33;1.20;;;12.00;99.90;;;12.04;80.33;101149.44;4993217;28;20630;-68
2023/01/05 06:45:58;;;;;;;1.67;0.87;;;12.00;99.90;;;12.05;80.73;101156.31;5005864;28;20644;-68
2023/01/05 06:48:25;;;;;;;2.90;0.90;;;12.00;99.90;;;12.04;81.16;101149.44;5020689;28;20677;-68
2023/01/05 06:50:52;;;;;;;1.80;0.67;;;12.00;99.90;;;12.05;80.21;101151.09;5020152;28;20671;-68
2023/01/05 06:53:19;;;;;;;3.30;0.80;;;12.00;99.90;;;12.01;80.36;101157.47;5009470;28;20724;-67
2023/01/05 06:55:46;;;;;;;0.60;0.47;;;11.90;99.90;;;11.99;80.80;101150.72;5008187;28;20713;-68
2023/01/05 06:58:13;;;;;;;0.87;0.70;;;11.90;99.90;;;11.96;81.46;101154.38;5008990;28;20688;-69
2023/01/05 07:00:40;;;;;;;1.87;0.97;;;11.90;99.90;;;11.94;81.97;101152.78;5010143;28;20637;-68
2023/01/05 07:03:12;;;;;;;1.63;0.93;;;11.90;99.90;;;11.94;81.29;101151.03;5009899;28;20630;-68
2023/01/05 07:05:40;;;;;;;1.47;1.10;;;11.90;99.90;;;11.91;82.89;101161.69;4991692;28;20652;-67
2023/01/05 07:08:07;;;;;;;2.30;0.80;;;11.80;99.90;;;11.88;82.47;101151.44;4989489;28;20678;-68
2023/01/05 07:10:35;;;;;;;4.47;1.10;;;11.80;99.90;;;11.90;82.50;101160.03;5007585;28;20644;-68
2023/01/05 07:13:02;;;;;;;2.60;0.70;;;11.80;99.90;;;11.89;82.38;101163.56;4997089;28;20638;-67
2023/01/05 07:15:29;;;;;;;1.07;0.70;;;11.80;99.90;;;11.89;82.19;101160.94;5001530;28;20733;-67
2023/01/05 07:17:56;;;;;;;4.00;0.60;;;11.80;99.90;;;11.89;83.25;101168.78;5007958;28;20660;-67
2023/01/05 07:20:23;;;;;;;2.53;0.80;;;11.80;99.90;;;11.92;82.29;101162.53;5002404;28;20637;-68
2023/01/05 07:22:49;;;;;;;2.53;0.53;;;11.80;99.90;;;11.91;83.13;101166.91;4996205;28;20638;-67
2023/01/05 07:25:17;;;;;;;1.40;0.70;;;11.80;99.90;;;11.89;82.71;101160.09;5007217;28;20633;-68
2023/01/05 07:27:51;;;;;;;5.30;1.20;;;11.80;99.90;;;11.87;82.55;101168.06;5008599;28;21041;-68
2023/01/05 07:30:18;;;;;;;1.90;0.63;;;11.80;99.90;;;11.85;83.05;101161.25;4998740;28;20633;-68
2023/01/05 07:32:45;;;;;;;3.33;1.40;;;11.80;99.90;;;11.86;83.05;101163.75;4999438;28;21087;-67
2023/01/05 07:35:12;;;;;;;1.50;0.67;;;11.80;99.90;;;11.88;82.81;101164.53;5009917;28;20680;-67
2023/01/05 07:37:39;;;;;;;2.17;1.10;;;11.80;99.90;;;11.88;83.33;101175.00;5009683;28;20740;-67
2023/01/05 07:40:07;;;;;;;2.53;1.00;;;11.80;99.90;;;11.91;83.30;101174.75;5015032;28;20964;-67
2023/01/05 07:42:34;;;;;;;0.33;0.33;;;11.90;99.90;;;11.91;82.64;101174.75;4996922;28;20635;-67
2023/01/05 07:45:01;;;;;;;4.33;1.30;;;11.80;99.90;;;11.88;82.52;101179.38;5015360;28;20617;-67
2023/01/05 07:47:28;;;;;;;3.83;0.57;;;11.80;99.90;;;11.87;82.76;101182.91;5013202;28;20669;-67
2023/01/05 07:49:55;;;;;;;0.70;0.70;;;11.80;99.90;;;11.85;83.52;101190.88;4996174;28;20645;-67
2023/01/05 07:52:22;;;;;;;2.93;1.13;;;11.80;99.90;;;11.84;83.57;101191.78;5012842;28;20683;-68
2023/01/05 07:54:48;;;;;;;3.17;1.40;;;11.80;99.90;;;11.84;83.39;101183.97;5005730;28;20989;-68
2023/01/05 07:57:15;;;;;;;3.07;1.00;;;11.80;99.90;;;11.86;82.38;101187.28;5003805;28;20640;-68
2023/01/05 07:59:42;;;;;;;4.80;0.83;;;11.80;99.90;;;11.90;82.74;101212.31;5008681;28;20645;-68
2023/01/05 08:02:09;;;;;;;5.40;0.93;;;11.80;99.90;;;11.95;81.80;101204.97;5012630;28;20637;-67
2023/01/05 08:04:37;;;;;;;2.30;1.50;;;11.90;99.90;;;11.98;81.49;101211.78;5013760;28;20637;-67
2023/01/05 08:07:09;;;;;;;4.03;1.43;;;11.90;99.90;;;11.97;80.96;101205.72;5014349;28;21013;-68
2023/01/05 08:12:23;;;;;;;0.40;0.40;;;11.90;99.90;;;12.02;79.69;101210.63;5003309;28;20637;-67
2023/01/05 08:14:50;;;;;;;0.87;0.77;;;12.00;99.90;;;12.04;80.09;101212.22;4995617;28;20983;-68
2023/01/05 08:17:17;;;;;;;0.27;0.27;;;12.00;99.90;;;12.10;79.84;101229.25;5005278;28;21002;-68
2023/01/05 08:19:45;;;;;;;10.10;1.30;;;12.00;99.90;;;12.13;79.09;101222.03;5012917;28;21008;-69
2023/01/05 08:22:12;;;;;;;0.47;0.47;;;12.10;99.90;;;12.14;80.20;101226.31;5012122;28;20664;-67
2023/01/05 08:24:39;;;;;;;2.20;0.90;;;12.10;99.90;;;12.15;79.58;101227.16;5011217;28;20633;-66
2023/01/05 08:27:06;;;;;;;2.37;0.57;;;12.10;99.90;;;12.20;79.89;101232.94;5012716;28;20637;-67
2023/01/05 08:29:33;;;;;;;2.20;0.60;;;12.10;99.90;;;12.18;78.99;101233.00;5007257;28;20715;-67
2023/01/05 08:32:00;;;;;;;2.50;0.97;;;12.10;99.90;;;12.18;80.06;101235.63;5010858;28;20683;-67
2023/01/05 08:34:27;;;;;;;1.10;0.57;;;12.10;99.90;;;12.17;79.41;101241.81;5000324;28;20625;-67
2023/01/05 08:37:00;;;;;;;3.27;0.67;;;12.10;99.90;;;12.20;80.05;101248.63;5011981;28;20629;-68
2023/01/05 08:39:27;;;;;;;1.80;0.90;;;12.10;99.90;;;12.21;79.56;101261.59;5038710;23;20695;-67
2023/01/05 08:41:54;;;;;;;4.30;1.17;;;12.10;99.90;;;12.25;79.39;101263.03;5032472;28;20723;-67
2023/01/05 08:44:28;;;;;;;1.80;0.60;;;12.20;99.90;;;12.25;79.89;101262.19;5030302;28;20640;-65
2023/01/05 08:46:55;;;;;;;1.30;0.67;;;12.20;99.90;;;12.26;79.83;101272.59;5029746;28;20613;-65
2023/01/05 08:49:23;;;;;;;1.67;0.70;;;12.20;99.90;;;12.27;78.92;101266.41;5028076;28;20748;-65
2023/01/05 08:51:49;;;;;;;1.00;0.57;;;12.20;99.90;;;12.26;79.59;101272.59;5012548;28;20629;-64
2023/01/05 08:54:16;;;;;;;0.63;0.47;;;12.20;99.90;;;12.28;79.73;101275.94;5012676;28;20621;-68
2023/01/05 08:56:43;;;;;;;0.53;0.53;;;12.20;99.90;;;12.26;79.95;101272.59;5012223;28;20633;-64
2023/01/05 08:59:13;;;;;;;2.33;1.40;;;12.20;99.90;;;12.25;80.09;101270.91;5012841;28;20664;-68
2023/01/05 09:01:40;;;;;;;3.03;1.10;;;12.10;99.90;;;12.28;79.37;101269.84;5012073;28;20621;-67
2023/01/05 09:04:07;;;;;;;0.77;0.77;;;12.20;99.90;;;12.30;80.29;101274.03;5017881;28;21018;-65
2023/01/05 09:06:34;;;;;;;3.70;1.23;;;12.20;99.90;;;12.30;79.27;101276.66;5022793;28;20628;-66
2023/01/05 09:09:01;;;;;;;2.30;1.00;;;12.20;99.90;;;12.32;79.79;101272.16;5006795;28;20672;-66
2023/01/05 09:11:28;;;;;;;2.50;0.70;;;12.20;99.90;;;12.32;79.57;101264.31;5001761;28;20618;-65
2023/01/05 09:13:58;;;;;;;1.43;1.10;;;12.30;99.90;;;12.36;79.23;101278.84;5004589;28;20627;-67
2023/01/05 09:16:28;;;;;;;1.70;1.00;;;12.30;99.90;;;12.41;78.83;101271.50;5001007;28;20640;-66
2023/01/05 09:19:15;;;;;;;2.53;1.00;;;12.30;99.90;;;12.45;79.16;101274.75;5003286;28;21096;-70
2023/01/05 09:21:43;;;;;;;0.80;0.80;;;12.40;99.90;;;12.46;78.71;101274.66;5002346;28;20683;-64
2023/01/05 09:24:13;;;;;;;2.07;0.60;;;12.40;99.90;;;12.53;78.40;101284.69;5007241;28;20621;-66
2023/01/05 09:26:41;;;;;;;2.43;1.00;;;12.40;99.90;;;12.61;78.18;101287.59;5002554;28;20664;-65
2023/01/05 09:29:12;;;;;;;6.10;0.93;;;12.50;99.90;;;12.73;78.11;101287.59;5006864;28;21687;-67
2023/01/05 09:31:40;;;;;;;3.70;1.00;;;12.60;99.90;;;12.78;77.20;101285.47;5008441;28;20664;-66
2023/01/05 09:34:07;;;;;;;2.77;1.40;;;12.70;99.90;;;12.84;76.41;101295.50;4993178;28;20732;-66
2023/01/05 09:36:37;;;;;;;5.53;1.23;;;12.80;99.90;;;12.82;76.72;101296.59;5010175;28;20632;-65
2023/01/05 09:39:05;;;;;;;1.33;1.00;;;12.80;99.90;;;12.82;76.22;101294.78;5011859;28;20649;-65
2023/01/05 09:41:46;;;;;;;0.90;0.80;;;12.80;99.90;;;12.84;75.94;101297.31;5011192;28;20616;-67
2023/01/05 09:44:32;;;;;;;1.30;0.50;;;12.80;99.90;;;12.83;75.67;101293.84;5012092;28;20983;-69
2023/01/05 09:47:40;;;;;;;2.93;0.90;;;12.80;99.90;;;12.80;76.03;101298.47;5010764;28;20908;-66
2023/01/05 09:50:26;;;;;;;1.60;0.80;;;12.70;99.90;;;12.77;76.03;101299.53;4993996;28;20649;-65
2023/01/05 09:52:58;;;;;;;5.00;1.40;;;12.70;99.90;;;12.83;75.74;101296.47;4993197;28;20651;-67
2023/01/05 09:55:30;;;;;;;3.70;1.10;;;12.70;99.90;;;12.89;74.23;101295.19;5011566;28;20629;-65
2023/01/05 09:58:10;;;;;;;0.97;0.97;;;12.80;99.90;;;12.94;74.44;101296.56;4994414;28;21070;-65
2023/01/05 10:00:47;;;;;;;4.00;1.40;;;12.90;99.90;;;13.06;73.98;101300.09;4993239;28;20628;-65
2023/01/05 10:03:20;;;;;;;2.90;0.93;;;12.90;99.90;;;13.12;73.69;101291.78;5010263;28;20644;-66
2023/01/05 10:06:14;;;;;;;5.60;1.03;;;13.00;99.90;;;13.18;73.30;101296.63;4996578;28;20609;-68
2023/01/05 10:08:48;;;;;;;8.83;1.17;;;13.10;99.90;;;13.24;72.93;101298.78;5010691;28;20673;-65
2023/01/05 10:14:45;;;;;;;1.63;1.30;;;13.20;99.90;;;13.28;72.55;101300.25;5010641;28;20636;-67
2023/01/05 10:17:19;;;;;;;6.17;1.70;;;13.20;99.90;;;13.33;72.22;101297.28;4994646;28;20629;-66
2023/01/05 10:20:43;;;;;;;1.60;1.20;;;13.20;99.90;;;13.29;72.27;101296.66;5010014;28;20696;-69
2023/01/05 10:23:30;;;;;;;5.17;1.83;;;13.20;99.90;;;13.31;72.63;101294.75;5002555;28;20632;-67
2023/01/05 10:26:14;;;;;;;2.33;1.20;;;13.20;99.90;;;13.37;71.18;101289.09;4982242;28;20628;-68
2023/01/05 10:28:55;;;;;;;3.47;1.10;;;13.30;99.90;;;13.41;71.16;101303.66;4991320;28;20673;-67
2023/01/05 10:31:32;;;;;;;2.97;1.17;;;13.30;99.90;;;13.42;71.66;101297.44;5003864;28;20636;-66
2023/01/05 10:34:19;;;;;;;3.57;1.20;;;13.30;99.90;;;13.48;70.96;101304.03;5010075;28;20631;-65
2023/01/05 10:37:24;;;;;;;5.03;1.60;;;13.40;99.90;;;13.48;70.87;101299.59;4996173;28;20618;-67
2023/01/05 10:40:37;;;;;;;1.57;1.00;;;13.40;99.90;;;13.43;69.75;101307.00;4978198;28;20813;-66
2023/01/05 10:43:29;;;;;;;2.90;1.13;;;13.40;99.90;;;13.48;69.60;101301.41;4974336;28;20622;-66
2023/01/05 10:45:56;;;;;;;3.40;1.93;;;13.40;99.90;;;13.50;69.46;101297.69;4981264;28;20716;-65
2023/01/05 10:48:44;;;;;;;2.53;1.60;;;13.40;99.90;;;13.57;68.73;101312.03;4995363;28;20727;-68
2023/01/05 10:51:10;;;;;;;0.90;0.90;;;13.50;99.90;;;13.59;68.30;101304.91;5010738;28;20622;-66
2023/01/05 10:53:41;;;;;;;7.97;1.00;;;13.50;99.90;;;13.68;67.86;101306.84;5010942;28;20640;-66
2023/01/05 10:56:27;;;;;;;1.33;1.00;;;13.50;99.90;;;13.79;67.80;101303.44;4993124;28;21200;-66
2023/01/05 10:59:11;;;;;;;6.73;1.57;;;13.60;99.90;;;13.88;67.27;101305.38;5009621;28;20657;-66
2023/01/05 11:01:44;;;;;;;4.93;0.50;;;13.70;99.90;;;13.93;67.00;101304.06;5009895;28;20633;-67
2023/01/05 11:04:22;;;;;;;0.63;0.50;;;13.80;99.90;;;13.93;66.94;101303.22;4997210;28;20637;-68
2023/01/05 11:07:06;;;;;;;1.30;0.93;;;13.80;99.90;;;13.97;67.24;101305.50;5011238;28;20621;-66